sensor_id;sensor_type;location;lat;lon;timestamp;temperature;humidity
44729;DHT22;30457;53.590;9.922;2024-03-08T00:02:20;6.70;59.80
44729;DHT22;30457;53.590;9.922;2024-03-08T00:06:45;6.70;59.70
44729;DHT22;30457;53.590;9.922;2024-03-08T00:11:11;6.70;59.70
44729;DHT22;30457;53.590;9.922;2024-03-08T00:15:36;6.70;59.70
44729;DHT22;30457;53.590;9.922;2024-03-08T00:20:02;6.60;59.60
44729;DHT22;30457;53.590;9.922;2024-03-08T00:24:33;6.60;59.60
44729;DHT22;30457;53.590;9.922;2024-03-08T00:28:59;6.60;59.50
44729;DHT22;30457;53.590;9.922;2024-03-08T00:33:24;6.60;59.50
44729;DHT22;30457;53.590;9.922;2024-03-08T00:37:50;6.60;59.60
44729;DHT22;30457;53.590;9.922;2024-03-08T00:42:16;6.50;59.50
44729;DHT22;30457;53.590;9.922;2024-03-08T00:46:42;6.50;59.50
44729;DHT22;30457;53.590;9.922;2024-03-08T00:51:08;6.50;59.50
44729;DHT22;30457;53.590;9.922;2024-03-08T00:55:33;6.50;59.40
44729;DHT22;30457;53.590;9.922;2024-03-08T01:00:00;6.40;59.30
44729;DHT22;30457;53.590;9.922;2024-03-08T01:04:25;6.40;59.00
44729;DHT22;30457;53.590;9.922;2024-03-08T01:08:54;6.40;59.40
44729;DHT22;30457;53.590;9.922;2024-03-08T01:13:19;6.30;59.40
44729;DHT22;30457;53.590;9.922;2024-03-08T01:17:45;6.30;59.00
44729;DHT22;30457;53.590;9.922;2024-03-08T01:22:11;6.30;59.40
44729;DHT22;30457;53.590;9.922;2024-03-08T01:26:37;6.30;59.50
44729;DHT22;30457;53.590;9.922;2024-03-08T01:31:04;6.30;59.40
44729;DHT22;30457;53.590;9.922;2024-03-08T01:35:29;6.30;59.40
44729;DHT22;30457;53.590;9.922;2024-03-08T01:39:56;6.30;59.40
44729;DHT22;30457;53.590;9.922;2024-03-08T01:44:21;6.20;59.40
44729;DHT22;30457;53.590;9.922;2024-03-08T01:48:47;6.20;59.40
44729;DHT22;30457;53.590;9.922;2024-03-08T01:53:14;6.20;59.40
44729;DHT22;30457;53.590;9.922;2024-03-08T01:57:40;6.20;59.40
44729;DHT22;30457;53.590;9.922;2024-03-08T02:02:08;6.10;59.40
44729;DHT22;30457;53.590;9.922;2024-03-08T02:06:37;6.10;59.50
44729;DHT22;30457;53.590;9.922;2024-03-08T02:11:04;6.10;59.40
44729;DHT22;30457;53.590;9.922;2024-03-08T02:15:58;6.00;59.30
44729;DHT22;30457;53.590;9.922;2024-03-08T02:20:29;6.00;59.30
44729;DHT22;30457;53.590;9.922;2024-03-08T02:24:55;6.00;59.30
44729;DHT22;30457;53.590;9.922;2024-03-08T02:29:21;5.90;59.20
44729;DHT22;30457;53.590;9.922;2024-03-08T02:33:46;5.90;59.30
44729;DHT22;30457;53.590;9.922;2024-03-08T02:38:13;5.90;59.30
44729;DHT22;30457;53.590;9.922;2024-03-08T02:42:42;5.80;59.40
44729;DHT22;30457;53.590;9.922;2024-03-08T02:47:08;5.80;59.40
44729;DHT22;30457;53.590;9.922;2024-03-08T02:51:33;5.80;59.40
44729;DHT22;30457;53.590;9.922;2024-03-08T02:56:00;5.80;59.40
44729;DHT22;30457;53.590;9.922;2024-03-08T03:00:26;5.80;59.40
44729;DHT22;30457;53.590;9.922;2024-03-08T03:04:52;5.70;59.30
44729;DHT22;30457;53.590;9.922;2024-03-08T03:09:18;5.70;59.40
44729;DHT22;30457;53.590;9.922;2024-03-08T03:13:48;5.70;59.40
44729;DHT22;30457;53.590;9.922;2024-03-08T03:18:14;5.70;59.40
44729;DHT22;30457;53.590;9.922;2024-03-08T03:22:41;5.60;59.40
44729;DHT22;30457;53.590;9.922;2024-03-08T03:27:06;5.60;59.40
44729;DHT22;30457;53.590;9.922;2024-03-08T03:31:36;5.60;59.40
44729;DHT22;30457;53.590;9.922;2024-03-08T03:36:02;5.50;59.30
44729;DHT22;30457;53.590;9.922;2024-03-08T03:40:28;5.50;59.30
44729;DHT22;30457;53.590;9.922;2024-03-08T03:44:54;5.50;59.20
44729;DHT22;30457;53.590;9.922;2024-03-08T03:53:52;5.30;59.10
44729;DHT22;30457;53.590;9.922;2024-03-08T03:58:18;5.30;59.20
44729;DHT22;30457;53.590;9.922;2024-03-08T04:02:47;5.30;59.20
44729;DHT22;30457;53.590;9.922;2024-03-08T04:07:14;5.20;59.20
44729;DHT22;30457;53.590;9.922;2024-03-08T04:11:39;5.20;59.40
44729;DHT22;30457;53.590;9.922;2024-03-08T04:16:06;5.20;59.90
44729;DHT22;30457;53.590;9.922;2024-03-08T04:20:33;5.20;59.40
44729;DHT22;30457;53.590;9.922;2024-03-08T04:24:58;5.10;59.30
44729;DHT22;30457;53.590;9.922;2024-03-08T04:29:25;5.10;59.40
44729;DHT22;30457;53.590;9.922;2024-03-08T04:33:50;5.00;59.30
44729;DHT22;30457;53.590;9.922;2024-03-08T04:38:16;5.00;59.40
44729;DHT22;30457;53.590;9.922;2024-03-08T04:42:44;5.00;59.40
44729;DHT22;30457;53.590;9.922;2024-03-08T04:47:09;5.00;59.50
44729;DHT22;30457;53.590;9.922;2024-03-08T04:51:36;5.00;59.60
44729;DHT22;30457;53.590;9.922;2024-03-08T04:56:03;4.90;59.70
44729;DHT22;30457;53.590;9.922;2024-03-08T05:00:32;4.90;59.80
44729;DHT22;30457;53.590;9.922;2024-03-08T05:04:58;4.90;59.90
44729;DHT22;30457;53.590;9.922;2024-03-08T05:09:23;4.90;60.00
44729;DHT22;30457;53.590;9.922;2024-03-08T05:13:49;4.80;60.00
44729;DHT22;30457;53.590;9.922;2024-03-08T05:18:14;4.80;60.10
44729;DHT22;30457;53.590;9.922;2024-03-08T05:22:40;4.80;60.20
44729;DHT22;30457;53.590;9.922;2024-03-08T05:27:06;4.80;60.40
44729;DHT22;30457;53.590;9.922;2024-03-08T05:31:38;4.80;60.40
44729;DHT22;30457;53.590;9.922;2024-03-08T05:36:10;4.80;60.50
44729;DHT22;30457;53.590;9.922;2024-03-08T05:40:37;4.80;60.40
44729;DHT22;30457;53.590;9.922;2024-03-08T05:45:05;4.80;60.40
44729;DHT22;30457;53.590;9.922;2024-03-08T05:49:35;4.80;60.30
44729;DHT22;30457;53.590;9.922;2024-03-08T05:54:02;4.80;60.30
44729;DHT22;30457;53.590;9.922;2024-03-08T05:58:28;4.80;60.30
44729;DHT22;30457;53.590;9.922;2024-03-08T06:02:55;4.70;60.40
44729;DHT22;30457;53.590;9.922;2024-03-08T06:07:21;4.70;60.50
44729;DHT22;30457;53.590;9.922;2024-03-08T06:11:46;4.70;60.70
44729;DHT22;30457;53.590;9.922;2024-03-08T06:16:12;4.70;60.70
44729;DHT22;30457;53.590;9.922;2024-03-08T06:20:37;4.70;60.80
44729;DHT22;30457;53.590;9.922;2024-03-08T06:25:03;4.80;60.80
44729;DHT22;30457;53.590;9.922;2024-03-08T06:29:29;4.70;60.70
44729;DHT22;30457;53.590;9.922;2024-03-08T06:33:55;4.80;60.70
44729;DHT22;30457;53.590;9.922;2024-03-08T06:38:20;4.80;60.70
44729;DHT22;30457;53.590;9.922;2024-03-08T06:42:46;4.80;60.80
44729;DHT22;30457;53.590;9.922;2024-03-08T06:47:12;4.90;61.10
44729;DHT22;30457;53.590;9.922;2024-03-08T06:51:37;4.90;61.20
44729;DHT22;30457;53.590;9.922;2024-03-08T06:56:03;4.90;61.10
44729;DHT22;30457;53.590;9.922;2024-03-08T07:00:29;5.00;61.20
44729;DHT22;30457;53.590;9.922;2024-03-08T07:04:55;5.00;61.20
44729;DHT22;30457;53.590;9.922;2024-03-08T07:09:21;5.10;61.10
44729;DHT22;30457;53.590;9.922;2024-03-08T07:13:47;5.10;61.20
44729;DHT22;30457;53.590;9.922;2024-03-08T07:18:12;5.20;61.10
44729;DHT22;30457;53.590;9.922;2024-03-08T07:22:40;5.30;61.20
44729;DHT22;30457;53.590;9.922;2024-03-08T07:27:06;5.30;61.10
44729;DHT22;30457;53.590;9.922;2024-03-08T07:31:31;5.40;61.00
44729;DHT22;30457;53.590;9.922;2024-03-08T07:36:10;5.50;60.80
44729;DHT22;30457;53.590;9.922;2024-03-08T07:40:36;5.60;60.80
44729;DHT22;30457;53.590;9.922;2024-03-08T07:45:06;5.70;60.70
44729;DHT22;30457;53.590;9.922;2024-03-08T07:49:33;5.80;60.70
44729;DHT22;30457;53.590;9.922;2024-03-08T07:53:59;5.90;60.50
44729;DHT22;30457;53.590;9.922;2024-03-08T07:58:25;6.10;60.30
44729;DHT22;30457;53.590;9.922;2024-03-08T08:02:51;6.20;60.30
44729;DHT22;30457;53.590;9.922;2024-03-08T08:07:16;6.30;60.20
44729;DHT22;30457;53.590;9.922;2024-03-08T08:11:42;6.40;60.00
44729;DHT22;30457;53.590;9.922;2024-03-08T08:16:10;6.60;59.60
44729;DHT22;30457;53.590;9.922;2024-03-08T08:20:36;6.70;59.50
44729;DHT22;30457;53.590;9.922;2024-03-08T08:25:01;6.80;59.30
44729;DHT22;30457;53.590;9.922;2024-03-08T08:29:27;7.00;59.20
44729;DHT22;30457;53.590;9.922;2024-03-08T08:33:52;7.20;59.20
44729;DHT22;30457;53.590;9.922;2024-03-08T08:38:23;7.30;58.80
44729;DHT22;30457;53.590;9.922;2024-03-08T08:42:50;7.50;58.90
44729;DHT22;30457;53.590;9.922;2024-03-08T08:47:15;7.60;58.40
44729;DHT22;30457;53.590;9.922;2024-03-08T08:51:51;7.70;57.90
44729;DHT22;30457;53.590;9.922;2024-03-08T08:56:17;7.90;57.80
44729;DHT22;30457;53.590;9.922;2024-03-08T09:00:44;8.00;57.60
44729;DHT22;30457;53.590;9.922;2024-03-08T09:05:10;8.20;57.80
44729;DHT22;30457;53.590;9.922;2024-03-08T09:09:36;8.30;57.40
44729;DHT22;30457;53.590;9.922;2024-03-08T09:14:02;8.50;57.10
44729;DHT22;30457;53.590;9.922;2024-03-08T09:18:28;8.60;56.70
44729;DHT22;30457;53.590;9.922;2024-03-08T09:22:54;8.80;56.40
44729;DHT22;30457;53.590;9.922;2024-03-08T09:27:20;8.80;56.00
44729;DHT22;30457;53.590;9.922;2024-03-08T09:31:45;9.00;56.10
44729;DHT22;30457;53.590;9.922;2024-03-08T09:36:11;9.10;55.60
44729;DHT22;30457;53.590;9.922;2024-03-08T09:40:38;9.30;55.70
44729;DHT22;30457;53.590;9.922;2024-03-08T09:45:11;9.40;55.80
44729;DHT22;30457;53.590;9.922;2024-03-08T09:49:36;9.60;54.70
44729;DHT22;30457;53.590;9.922;2024-03-08T09:54:02;9.70;54.60
44729;DHT22;30457;53.590;9.922;2024-03-08T09:58:31;9.80;54.70
44729;DHT22;30457;53.590;9.922;2024-03-08T10:03:02;9.90;54.50
44729;DHT22;30457;53.590;9.922;2024-03-08T10:07:28;10.10;53.90
44729;DHT22;30457;53.590;9.922;2024-03-08T10:11:57;10.20;53.90
44729;DHT22;30457;53.590;9.922;2024-03-08T10:16:23;10.30;53.30
44729;DHT22;30457;53.590;9.922;2024-03-08T10:21:06;10.40;53.00
44729;DHT22;30457;53.590;9.922;2024-03-08T10:25:32;10.50;52.20
44729;DHT22;30457;53.590;9.922;2024-03-08T10:29:58;10.60;52.20
44729;DHT22;30457;53.590;9.922;2024-03-08T10:34:24;10.70;52.20
44729;DHT22;30457;53.590;9.922;2024-03-08T10:38:51;10.70;52.10
44729;DHT22;30457;53.590;9.922;2024-03-08T10:43:23;10.80;51.00
44729;DHT22;30457;53.590;9.922;2024-03-08T10:48:14;10.80;50.70
44729;DHT22;30457;53.590;9.922;2024-03-08T10:52:42;10.80;50.50
44729;DHT22;30457;53.590;9.922;2024-03-08T10:57:08;10.90;50.60
44729;DHT22;30457;53.590;9.922;2024-03-08T11:01:37;10.80;49.90
44729;DHT22;30457;53.590;9.922;2024-03-08T11:06:03;10.80;49.80
44729;DHT22;30457;53.590;9.922;2024-03-08T11:10:28;10.90;49.70
44729;DHT22;30457;53.590;9.922;2024-03-08T11:14:55;10.90;48.70
44729;DHT22;30457;53.590;9.922;2024-03-08T11:24:00;11.00;49.40
44729;DHT22;30457;53.590;9.922;2024-03-08T11:28:25;10.90;48.70
44729;DHT22;30457;53.590;9.922;2024-03-08T11:32:52;11.20;49.00
44729;DHT22;30457;53.590;9.922;2024-03-08T11:37:19;11.30;49.30
44729;DHT22;30457;53.590;9.922;2024-03-08T11:41:46;11.40;49.00
44729;DHT22;30457;53.590;9.922;2024-03-08T11:46:12;11.60;48.60
44729;DHT22;30457;53.590;9.922;2024-03-08T11:50:38;11.70;48.70
44729;DHT22;30457;53.590;9.922;2024-03-08T11:55:05;11.80;48.40
44729;DHT22;30457;53.590;9.922;2024-03-08T11:59:30;11.90;47.00
44729;DHT22;30457;53.590;9.922;2024-03-08T12:03:57;12.00;47.50
44729;DHT22;30457;53.590;9.922;2024-03-08T12:08:24;12.10;47.20
44729;DHT22;30457;53.590;9.922;2024-03-08T12:12:51;12.20;47.40
44729;DHT22;30457;53.590;9.922;2024-03-08T12:17:17;12.30;47.50
44729;DHT22;30457;53.590;9.922;2024-03-08T12:21:43;12.40;46.40
44729;DHT22;30457;53.590;9.922;2024-03-08T12:26:15;12.50;46.30
44729;DHT22;30457;53.590;9.922;2024-03-08T12:30:49;12.60;45.80
44729;DHT22;30457;53.590;9.922;2024-03-08T12:35:16;12.60;45.00
44729;DHT22;30457;53.590;9.922;2024-03-08T12:39:41;12.70;45.50
44729;DHT22;30457;53.590;9.922;2024-03-08T12:44:07;12.80;44.10
44729;DHT22;30457;53.590;9.922;2024-03-08T12:48:36;12.90;45.70
44729;DHT22;30457;53.590;9.922;2024-03-08T12:53:05;13.00;45.10
44729;DHT22;30457;53.590;9.922;2024-03-08T12:57:31;13.10;45.20
44729;DHT22;30457;53.590;9.922;2024-03-08T13:01:57;13.20;45.30
44729;DHT22;30457;53.590;9.922;2024-03-08T13:06:28;13.40;44.70
44729;DHT22;30457;53.590;9.922;2024-03-08T13:10:54;13.50;44.50
44729;DHT22;30457;53.590;9.922;2024-03-08T13:15:19;13.60;44.80
44729;DHT22;30457;53.590;9.922;2024-03-08T13:19:48;13.80;44.70
44729;DHT22;30457;53.590;9.922;2024-03-08T13:24:13;13.90;44.80
44729;DHT22;30457;53.590;9.922;2024-03-08T13:28:48;14.10;44.10
44729;DHT22;30457;53.590;9.922;2024-03-08T13:33:19;14.20;43.70
44729;DHT22;30457;53.590;9.922;2024-03-08T13:37:45;14.30;43.80
44729;DHT22;30457;53.590;9.922;2024-03-08T13:42:15;14.40;43.30
44729;DHT22;30457;53.590;9.922;2024-03-08T13:46:41;14.50;42.00
44729;DHT22;30457;53.590;9.922;2024-03-08T13:51:07;14.60;43.10
44729;DHT22;30457;53.590;9.922;2024-03-08T13:55:35;14.70;42.50
44729;DHT22;30457;53.590;9.922;2024-03-08T14:00:01;14.80;41.90
44729;DHT22;30457;53.590;9.922;2024-03-08T14:04:27;14.90;42.10
44729;DHT22;30457;53.590;9.922;2024-03-08T14:08:53;14.90;41.90
44729;DHT22;30457;53.590;9.922;2024-03-08T14:13:22;15.00;41.60
44729;DHT22;30457;53.590;9.922;2024-03-08T14:17:55;15.10;40.80
44729;DHT22;30457;53.590;9.922;2024-03-08T14:22:21;15.10;40.30
44729;DHT22;30457;53.590;9.922;2024-03-08T14:26:46;15.10;40.10
44729;DHT22;30457;53.590;9.922;2024-03-08T14:31:14;15.00;39.60
44729;DHT22;30457;53.590;9.922;2024-03-08T14:35:44;15.00;40.20
44729;DHT22;30457;53.590;9.922;2024-03-08T14:40:09;15.00;39.70
44729;DHT22;30457;53.590;9.922;2024-03-08T14:44:35;14.90;39.90
44729;DHT22;30457;53.590;9.922;2024-03-08T14:49:03;14.90;39.80
44729;DHT22;30457;53.590;9.922;2024-03-08T14:53:29;14.90;39.50
44729;DHT22;30457;53.590;9.922;2024-03-08T14:57:55;14.80;39.50
44729;DHT22;30457;53.590;9.922;2024-03-08T15:02:20;14.70;39.30
44729;DHT22;30457;53.590;9.922;2024-03-08T15:06:47;14.60;39.50
44729;DHT22;30457;53.590;9.922;2024-03-08T15:11:14;14.50;39.60
44729;DHT22;30457;53.590;9.922;2024-03-08T15:15:50;14.40;39.20
44729;DHT22;30457;53.590;9.922;2024-03-08T15:20:22;14.30;39.10
44729;DHT22;30457;53.590;9.922;2024-03-08T15:24:54;14.20;39.20
44729;DHT22;30457;53.590;9.922;2024-03-08T15:29:19;14.20;39.80
44729;DHT22;30457;53.590;9.922;2024-03-08T15:33:51;14.10;39.70
44729;DHT22;30457;53.590;9.922;2024-03-08T15:38:25;14.00;40.20
44729;DHT22;30457;53.590;9.922;2024-03-08T15:42:56;14.00;40.60
44729;DHT22;30457;53.590;9.922;2024-03-08T15:47:22;13.90;40.20
44729;DHT22;30457;53.590;9.922;2024-03-08T15:51:50;13.90;40.30
44729;DHT22;30457;53.590;9.922;2024-03-08T15:56:16;13.90;40.20
44729;DHT22;30457;53.590;9.922;2024-03-08T16:00:41;13.90;40.40
44729;DHT22;30457;53.590;9.922;2024-03-08T16:05:13;13.80;40.50
44729;DHT22;30457;53.590;9.922;2024-03-08T16:09:39;13.80;40.70
44729;DHT22;30457;53.590;9.922;2024-03-08T16:14:05;13.70;40.50
44729;DHT22;30457;53.590;9.922;2024-03-08T16:18:30;13.60;40.30
44729;DHT22;30457;53.590;9.922;2024-03-08T16:22:59;13.60;40.60
44729;DHT22;30457;53.590;9.922;2024-03-08T16:27:25;13.50;40.80
44729;DHT22;30457;53.590;9.922;2024-03-08T16:31:52;13.40;40.30
44729;DHT22;30457;53.590;9.922;2024-03-08T16:36:18;13.40;40.80
44729;DHT22;30457;53.590;9.922;2024-03-08T16:40:45;13.30;40.80
44729;DHT22;30457;53.590;9.922;2024-03-08T16:45:12;13.20;40.40
44729;DHT22;30457;53.590;9.922;2024-03-08T16:49:41;13.20;40.80
44729;DHT22;30457;53.590;9.922;2024-03-08T16:54:07;13.10;40.50
44729;DHT22;30457;53.590;9.922;2024-03-08T16:58:33;13.00;41.20
44729;DHT22;30457;53.590;9.922;2024-03-08T17:03:00;13.00;41.50
44729;DHT22;30457;53.590;9.922;2024-03-08T17:07:27;12.90;41.80
44729;DHT22;30457;53.590;9.922;2024-03-08T17:11:52;12.80;41.80
44729;DHT22;30457;53.590;9.922;2024-03-08T17:16:18;12.70;41.90
44729;DHT22;30457;53.590;9.922;2024-03-08T17:20:49;12.70;42.00
44729;DHT22;30457;53.590;9.922;2024-03-08T17:25:15;12.50;42.40
44729;DHT22;30457;53.590;9.922;2024-03-08T17:29:45;12.50;42.90
44729;DHT22;30457;53.590;9.922;2024-03-08T17:34:11;12.30;42.60
44729;DHT22;30457;53.590;9.922;2024-03-08T17:38:39;12.30;42.80
44729;DHT22;30457;53.590;9.922;2024-03-08T17:43:10;12.10;42.90
44729;DHT22;30457;53.590;9.922;2024-03-08T17:47:36;12.10;43.20
44729;DHT22;30457;53.590;9.922;2024-03-08T17:52:04;12.00;43.10
44729;DHT22;30457;53.590;9.922;2024-03-08T17:56:29;11.90;43.20
44729;DHT22;30457;53.590;9.922;2024-03-08T18:00:56;11.80;43.40
44729;DHT22;30457;53.590;9.922;2024-03-08T18:05:26;11.70;43.30
44729;DHT22;30457;53.590;9.922;2024-03-08T18:09:55;11.60;43.30
44729;DHT22;30457;53.590;9.922;2024-03-08T18:14:20;11.60;43.40
44729;DHT22;30457;53.590;9.922;2024-03-08T18:18:47;11.50;43.70
44729;DHT22;30457;53.590;9.922;2024-03-08T18:23:15;11.40;43.40
44729;DHT22;30457;53.590;9.922;2024-03-08T18:27:41;11.40;43.40
44729;DHT22;30457;53.590;9.922;2024-03-08T18:32:06;11.30;43.50
44729;DHT22;30457;53.590;9.922;2024-03-08T18:36:33;11.20;43.40
44729;DHT22;30457;53.590;9.922;2024-03-08T18:40:59;11.10;43.50
44729;DHT22;30457;53.590;9.922;2024-03-08T18:45:26;11.10;43.60
44729;DHT22;30457;53.590;9.922;2024-03-08T18:49:53;11.00;43.70
44729;DHT22;30457;53.590;9.922;2024-03-08T18:54:19;11.00;43.50
44729;DHT22;30457;53.590;9.922;2024-03-08T18:58:44;10.90;43.70
44729;DHT22;30457;53.590;9.922;2024-03-08T19:03:10;10.90;43.70
44729;DHT22;30457;53.590;9.922;2024-03-08T19:07:36;10.80;43.70
44729;DHT22;30457;53.590;9.922;2024-03-08T19:12:02;10.80;43.80
44729;DHT22;30457;53.590;9.922;2024-03-08T19:16:34;10.70;43.80
44729;DHT22;30457;53.590;9.922;2024-03-08T19:21:06;10.60;44.00
44729;DHT22;30457;53.590;9.922;2024-03-08T19:25:34;10.60;44.00
44729;DHT22;30457;53.590;9.922;2024-03-08T19:30:00;10.50;44.10
44729;DHT22;30457;53.590;9.922;2024-03-08T19:34:26;10.50;44.30
44729;DHT22;30457;53.590;9.922;2024-03-08T19:38:52;10.40;44.30
44729;DHT22;30457;53.590;9.922;2024-03-08T19:43:18;10.40;44.80
44729;DHT22;30457;53.590;9.922;2024-03-08T19:47:45;10.30;44.50
44729;DHT22;30457;53.590;9.922;2024-03-08T19:52:11;10.30;44.40
44729;DHT22;30457;53.590;9.922;2024-03-08T19:56:36;10.20;44.60
44729;DHT22;30457;53.590;9.922;2024-03-08T20:01:03;10.20;44.60
44729;DHT22;30457;53.590;9.922;2024-03-08T20:05:30;10.10;44.70
44729;DHT22;30457;53.590;9.922;2024-03-08T20:09:58;10.10;44.80
44729;DHT22;30457;53.590;9.922;2024-03-08T20:14:23;10.00;44.80
44729;DHT22;30457;53.590;9.922;2024-03-08T20:18:50;10.00;45.00
44729;DHT22;30457;53.590;9.922;2024-03-08T20:23:16;10.00;45.00
44729;DHT22;30457;53.590;9.922;2024-03-08T20:27:41;9.90;45.00
44729;DHT22;30457;53.590;9.922;2024-03-08T20:32:14;9.90;45.60
44729;DHT22;30457;53.590;9.922;2024-03-08T20:36:40;9.80;45.20
44729;DHT22;30457;53.590;9.922;2024-03-08T20:41:07;9.80;45.20
44729;DHT22;30457;53.590;9.922;2024-03-08T20:45:34;9.80;45.20
44729;DHT22;30457;53.590;9.922;2024-03-08T20:49:59;9.70;45.20
44729;DHT22;30457;53.590;9.922;2024-03-08T20:54:25;9.70;45.20
44729;DHT22;30457;53.590;9.922;2024-03-08T20:58:51;9.70;45.20
44729;DHT22;30457;53.590;9.922;2024-03-08T21:03:17;9.60;45.20
44729;DHT22;30457;53.590;9.922;2024-03-08T21:07:44;9.60;45.20
44729;DHT22;30457;53.590;9.922;2024-03-08T21:12:11;9.60;45.20
44729;DHT22;30457;53.590;9.922;2024-03-08T21:16:39;9.60;45.20
44729;DHT22;30457;53.590;9.922;2024-03-08T21:21:07;9.60;45.30
44729;DHT22;30457;53.590;9.922;2024-03-08T21:25:33;9.50;45.20
44729;DHT22;30457;53.590;9.922;2024-03-08T21:29:59;9.50;45.30
44729;DHT22;30457;53.590;9.922;2024-03-08T21:34:25;9.50;45.40
44729;DHT22;30457;53.590;9.922;2024-03-08T21:38:51;9.40;45.40
44729;DHT22;30457;53.590;9.922;2024-03-08T21:43:17;9.50;45.50
44729;DHT22;30457;53.590;9.922;2024-03-08T21:47:44;9.40;45.50
44729;DHT22;30457;53.590;9.922;2024-03-08T21:52:10;9.40;45.50
44729;DHT22;30457;53.590;9.922;2024-03-08T21:56:35;9.40;45.60
44729;DHT22;30457;53.590;9.922;2024-03-08T22:01:02;9.40;45.50
44729;DHT22;30457;53.590;9.922;2024-03-08T22:05:29;9.30;45.50
44729;DHT22;30457;53.590;9.922;2024-03-08T22:09:56;9.30;45.50
44729;DHT22;30457;53.590;9.922;2024-03-08T22:14:21;9.30;45.50
44729;DHT22;30457;53.590;9.922;2024-03-08T22:18:50;9.20;45.60
44729;DHT22;30457;53.590;9.922;2024-03-08T22:23:15;9.20;45.60
44729;DHT22;30457;53.590;9.922;2024-03-08T22:27:44;9.20;45.70
44729;DHT22;30457;53.590;9.922;2024-03-08T22:32:10;9.10;45.30
44729;DHT22;30457;53.590;9.922;2024-03-08T22:36:36;9.10;45.70
44729;DHT22;30457;53.590;9.922;2024-03-08T22:41:02;9.10;45.80
44729;DHT22;30457;53.590;9.922;2024-03-08T22:45:28;9.00;45.80
44729;DHT22;30457;53.590;9.922;2024-03-08T22:49:54;9.00;45.80
44729;DHT22;30457;53.590;9.922;2024-03-08T22:54:20;9.00;45.90
44729;DHT22;30457;53.590;9.922;2024-03-08T22:58:48;8.90;46.00
44729;DHT22;30457;53.590;9.922;2024-03-08T23:03:15;8.90;46.00
44729;DHT22;30457;53.590;9.922;2024-03-08T23:07:42;8.90;46.00
44729;DHT22;30457;53.590;9.922;2024-03-08T23:12:08;8.90;46.20
44729;DHT22;30457;53.590;9.922;2024-03-08T23:16:37;8.90;46.30
44729;DHT22;30457;53.590;9.922;2024-03-08T23:21:04;8.80;46.40
44729;DHT22;30457;53.590;9.922;2024-03-08T23:25:33;8.80;46.40
44729;DHT22;30457;53.590;9.922;2024-03-08T23:30:00;8.70;46.40
44729;DHT22;30457;53.590;9.922;2024-03-08T23:34:27;8.70;46.50
44729;DHT22;30457;53.590;9.922;2024-03-08T23:38:52;8.70;46.60
44729;DHT22;30457;53.590;9.922;2024-03-08T23:43:18;8.60;46.60
44729;DHT22;30457;53.590;9.922;2024-03-08T23:47:48;8.60;46.70
44729;DHT22;30457;53.590;9.922;2024-03-08T23:52:14;8.50;46.60
44729;DHT22;30457;53.590;9.922;2024-03-08T23:56:40;8.50;46.60
